Impacts METAR Board
IDs:

KLGA - New York/La Guardia, NY, US

Updated at: 2000 UTC 19 May 2019
Potential Impact None Slight Moderate High
Time 19/08Z 19/09Z 19/10Z 19/11Z 19/12Z 19/13Z 19/14Z 19/15Z 19/16Z 19/17Z 19/18Z 19/19Z 19/20Z
Temp61 61 61 62 63 67 67 70 70 72 72 74 74
Dewpt50 51 53 53 54 54 57 55 57 59 61 62 63
Altim30.07 30.06 30.08 30.09 30.08 30.08 30.07 30.06 30.05 30.03 30.02 30.00 29.96
VIS10 10 10 10 10 10 10 10 10 10 10 10 10
CIG60 100 250 40 55 50 55 55 50 250 -- -- --
CoverBKNBKNBKNBKNBKNBKNBKNBKNBKNBKNSCTSCTFEW
FltCatVFRVFRVFRVFRVFRVFRVFRVFRVFRVFRVFRVFRVFR
WX--------------------------
WDir190180190160180190190170180190170170170
WSpd4 5 6 6 8 10 8 13 14 13 14 12 13
WGst-- -- -- -- -- -- -- -- 23 22 21 20 21
Raw hourly METARs
KLGA 190751Z 19004KT 10SM BKN060 BKN250 16/10 A3007 RMK AO2 SLP181 T01610100
KLGA 190851Z 18005KT 10SM SCT046 BKN100 16/11 A3006 RMK AO2 SLP180 T01610106 58002
KLGA 190951Z 19006KT 10SM SCT045 BKN250 16/12 A3008 RMK AO2 SLP184 T01610117
KLGA 191051Z 16006KT 10SM BKN040 BKN055 BKN130 17/12 A3009 RMK AO2 SLP189 T01670117
KLGA 191151Z 18008KT 10SM FEW020TCU SCT040 BKN055 BKN130 BKN250 17/12 A3008 RMK AO2 SLP185 TCU SW-W T01720122 10172 20156 50005
KLGA 191251Z 19010KT 10SM FEW029TCU SCT042 BKN050 BKN130 BKN160 BKN250 19/12 A3008 RMK AO2 SLP185 TCU SW T01940122
KLGA 191351Z 19008KT 10SM FEW022 SCT040 BKN055 BKN140 BKN250 19/14 A3007 RMK AO2 RAB03E40 SLP181 VCSH SE P0000 T01940139
KLGA 191451Z 17013KT 10SM FEW019 SCT040 BKN055 BKN140 BKN250 21/13 A3006 RMK AO2 SLP178 60000 T02110128 58007
KLGA 191551Z 18014G23KT 10SM FEW018 BKN050 BKN130 BKN250 21/14 A3005 RMK AO2 SLP174 T02110139
KLGA 191651Z 19013G22KT 10SM FEW029 SCT050 SCT130 BKN250 22/15 A3003 RMK AO2 SLP170 T02220150
KLGA 191751Z 17014G21KT 10SM FEW024 SCT090 SCT230 22/16 A3002 RMK AO2 SLP165 60000 T02220161 10228 20172 58013
KLGA 191851Z 17012G20KT 10SM FEW025 FEW100 SCT250 23/17 A3000 RMK AO2 SLP157 T02330167
KLGA 191951Z 17013G21KT 10SM FEW250 23/17 A2996 RMK AO2 SLP146 T02330172



Page loaded:  20:18 UTC  |   01:18 PM Pacific  |   02:18 PM Mountain  |   03:18 PM Central  |   04:18 PM Eastern

 

ADVISORIES

FORECASTS

FORECASTS

OBSERVATIONS

USER TOOLS

ABOUT US